Time;durP1;ratioP1;P1;durP2;ratioP2;P2;SDS_P1;SDS_P2;PMS_P1;PMS_P2;Temp;Humidity;BMP_temperature;BMP_pressure;BME280_temperature;BME280_humidity;BME280_pressure;Samples;Min_cycle;Max_cycle;Signal;HPM_P1;HPM_P2
2022/10/19 00:02:42;;;;;;;24.10;10.18;;;;;;;15.78;76.49;101433.03;10414117;28;20079;-71
2022/10/19 00:07:44;;;;;;;21.42;10.98;;;;;;;15.72;76.27;101428.34;10410848;28;20124;-70
2022/10/19 00:12:45;;;;;;;22.80;10.38;;;;;;;15.62;76.50;101430.44;10412985;28;20081;-69
2022/10/19 00:17:50;;;;;;;21.40;10.30;;;;;;;15.57;76.46;101430.16;10406216;28;20391;-70
2022/10/19 00:22:51;;;;;;;25.48;10.18;;;;;;;15.51;76.27;101431.72;10404635;28;20088;-70
2022/10/19 00:27:52;;;;;;;29.05;11.75;;;;;;;15.44;76.39;101423.47;10414106;28;20084;-70
2022/10/19 00:32:54;;;;;;;23.85;10.48;;;;;;;15.47;76.03;101424.97;10407557;28;20527;-70
2022/10/19 00:37:55;;;;;;;24.92;10.65;;;;;;;15.50;75.80;101418.34;10407037;28;20784;-70
2022/10/19 00:42:57;;;;;;;27.85;11.50;;;;;;;15.43;75.63;101429.91;10411562;28;20547;-69
2022/10/19 00:47:58;;;;;;;26.83;11.15;;;;;;;15.40;75.62;101426.72;10404461;28;20131;-70
2022/10/19 00:52:59;;;;;;;24.38;11.35;;;;;;;15.34;75.48;101428.28;10403121;28;20041;-72
2022/10/19 00:58:01;;;;;;;26.95;12.32;;;;;;;15.28;75.57;101429.00;10407086;28;20050;-70
2022/10/19 01:03:04;;;;;;;28.73;11.13;;;;;;;15.19;75.53;101422.81;10408784;28;20041;-69
2022/10/19 01:08:07;;;;;;;25.05;11.15;;;;;;;15.10;75.79;101426.59;10404170;28;20103;-69
2022/10/19 01:13:22;;;;;;;27.55;11.23;;;;;;;15.05;75.89;101423.59;10425264;28;20188;-69
2022/10/19 01:18:43;;;;;;;20.98;10.15;;;;;;;15.02;75.75;101418.53;10409534;28;20102;-69
2022/10/19 01:24:21;;;;;;;20.85;9.95;;;;;;;14.96;75.74;101416.53;10413280;28;20547;-69
2022/10/19 01:30:00;;;;;;;22.98;10.32;;;;;;;14.85;76.24;101417.78;10403990;28;20037;-69
2022/10/19 01:35:17;;;;;;;21.35;9.65;;;;;;;14.83;76.20;101417.09;10396810;28;20132;-69
2022/10/19 01:40:40;;;;;;;27.73;10.30;;;;;;;14.77;76.13;101407.84;10388812;28;20045;-69
2022/10/19 01:46:13;;;;;;;25.00;10.43;;;;;;;14.67;76.42;101410.78;10405951;28;20045;-69
2022/10/19 01:51:20;;;;;;;23.63;9.88;;;;;;;14.60;76.65;101404.38;10397472;28;20152;-68
2022/10/19 01:56:25;;;;;;;24.13;9.63;;;;;;;14.55;76.66;101403.19;10404570;28;20080;-69
2022/10/19 02:01:30;;;;;;;25.42;10.77;;;;;;;14.53;76.51;101402.50;10375054;28;20124;-68
2022/10/19 02:06:31;;;;;;;19.60;8.57;;;;;;;14.53;76.34;101402.50;10405069;28;20084;-69
2022/10/19 02:11:36;;;;;;;25.80;9.50;;;;;;;14.50;76.11;101411.00;10388082;28;20046;-68
2022/10/19 02:16:48;;;;;;;29.27;9.70;;;;;;;14.41;76.22;101402.88;10406641;28;20432;-69
2022/10/19 02:21:51;;;;;;;24.73;9.52;;;;;;;14.28;76.57;101395.34;10412229;28;20057;-68
2022/10/19 02:26:54;;;;;;;25.98;10.13;;;;;;;14.22;76.90;101396.03;10414374;28;20507;-70
2022/10/19 02:31:56;;;;;;;19.67;9.45;;;;;;;14.27;76.30;101399.06;10405923;28;20080;-68
2022/10/19 02:36:57;;;;;;;20.92;8.82;;;;;;;14.25;76.64;101402.97;10410197;28;20128;-69
2022/10/19 02:42:10;;;;;;;19.75;9.55;;;;;;;14.26;76.33;101393.84;10411470;28;20135;-68
2022/10/19 02:47:14;;;;;;;22.75;8.95;;;;;;;14.26;76.26;101400.09;10416033;28;20057;-69
2022/10/19 02:52:15;;;;;;;25.13;9.77;;;;;;;14.28;76.04;101394.50;10411384;28;20959;-69
2022/10/19 02:57:19;;;;;;;30.30;11.25;;;;;;;14.27;76.05;101388.22;10413466;28;20455;-69
2022/10/19 03:02:21;;;;;;;24.85;10.55;;;;;;;14.23;76.32;101377.94;10420885;28;20068;-69
2022/10/19 03:07:22;;;;;;;28.48;10.52;;;;;;;14.19;76.08;101374.75;10406952;28;20076;-69
2022/10/19 03:12:24;;;;;;;28.95;10.55;;;;;;;14.16;76.27;101372.41;10406156;28;20073;-69
2022/10/19 03:17:25;;;;;;;21.27;9.48;;;;;;;14.13;76.17;101366.50;10413845;28;20640;-69
2022/10/19 03:22:27;;;;;;;27.60;10.40;;;;;;;14.08;76.29;101367.88;10421264;28;20550;-71
2022/10/19 03:27:28;;;;;;;25.13;9.45;;;;;;;14.05;75.98;101362.78;10408084;28;20577;-69
2022/10/19 03:32:29;;;;;;;25.77;10.48;;;;;;;14.00;76.36;101362.50;10405057;28;20056;-68
2022/10/19 03:37:31;;;;;;;31.33;11.85;;;;;;;13.95;76.26;101359.44;10406934;28;20073;-69
2022/10/19 03:42:32;;;;;;;35.15;11.98;;;;;;;13.86;76.49;101360.47;10414353;28;20045;-69
2022/10/19 03:47:34;;;;;;;33.88;13.18;;;;;;;13.81;76.79;101365.56;10401067;28;20045;-69
2022/10/19 03:52:36;;;;;;;27.52;11.75;;;;;;;13.71;77.59;101367.63;10414786;28;20037;-69
2022/10/19 03:57:37;;;;;;;29.73;11.18;;;;;;;13.65;77.21;101361.88;10404783;28;20045;-69
2022/10/19 04:02:38;;;;;;;31.70;11.13;;;;;;;13.61;77.61;101365.94;10402386;28;20037;-69
2022/10/19 04:07:40;;;;;;;33.28;12.65;;;;;;;13.54;77.84;101372.19;10399493;28;20038;-69
2022/10/19 04:12:41;;;;;;;27.10;11.15;;;;;;;13.54;77.58;101367.63;10418431;28;20057;-69
2022/10/19 04:17:43;;;;;;;30.05;12.13;;;;;;;13.54;77.64;101375.72;10414757;28;20123;-68
2022/10/19 04:22:51;;;;;;;28.08;11.13;;;;;;;13.53;77.52;101367.81;10408399;28;20049;-68
2022/10/19 04:27:53;;;;;;;27.08;10.77;;;;;;;13.53;77.40;101376.75;10404131;28;20125;-69
2022/10/19 04:32:54;;;;;;;29.90;12.15;;;;;;;13.47;77.33;101383.69;10415365;28;20041;-69
2022/10/19 04:37:57;;;;;;;24.50;10.48;;;;;;;13.41;77.61;101380.81;10393681;28;20044;-68
2022/10/19 04:42:59;;;;;;;25.13;10.57;;;;;;;13.35;77.83;101374.25;10401702;28;20684;-69
2022/10/19 04:48:00;;;;;;;27.65;10.50;;;;;;;13.30;77.75;101376.59;10411274;28;20069;-68
2022/10/19 04:53:02;;;;;;;26.77;10.45;;;;;;;13.22;77.65;101380.09;10405746;28;20125;-69
2022/10/19 04:58:03;;;;;;;24.15;9.45;;;;;;;13.19;77.79;101388.56;10403523;28;20057;-69
2022/10/19 05:03:05;;;;;;;25.48;10.40;;;;;;;13.19;77.77;101375.06;10405001;28;20057;-68
2022/10/19 05:08:06;;;;;;;28.38;10.65;;;;;;;13.24;77.26;101383.47;10407111;28;20096;-68
2022/10/19 05:13:08;;;;;;;27.13;10.13;;;;;;;13.17;77.14;101385.19;10398824;28;20073;-69
2022/10/19 05:18:09;;;;;;;22.33;10.10;;;;;;;13.18;77.32;101384.16;10409829;28;20080;-69
2022/10/19 05:23:10;;;;;;;26.88;10.48;;;;;;;13.14;77.54;101379.25;10402584;28;20115;-68
2022/10/19 05:28:12;;;;;;;20.20;9.68;;;;;;;13.15;77.64;101389.91;10402217;28;20041;-68
2022/10/19 05:33:13;;;;;;;27.10;9.65;;;;;;;13.22;77.47;101388.19;10409715;28;21508;-70
2022/10/19 05:38:14;;;;;;;19.30;9.02;;;;;;;13.22;77.80;101380.09;10402294;28;20136;-69
2022/10/19 05:43:16;;;;;;;27.95;8.60;;;;;;;13.27;77.46;101382.31;10404425;28;20069;-69
2022/10/19 05:48:17;;;;;;;25.35;9.20;;;;;;;13.32;77.64;101382.66;10406614;28;20076;-70
2022/10/19 05:53:19;;;;;;;17.63;7.78;;;;;;;13.43;77.60;101368.00;10412039;28;20128;-67
2022/10/19 05:58:21;;;;;;;19.27;7.43;;;;;;;13.53;77.25;101376.75;10407661;28;20072;-67
2022/10/19 06:03:23;;;;;;;17.77;6.10;;;;;;;13.67;77.01;101378.75;10386850;28;20049;-68
2022/10/19 06:08:25;;;;;;;12.38;5.82;;;;;;;13.79;76.81;101387.38;10393746;28;20072;-66
2022/10/19 06:13:26;;;;;;;18.80;7.68;;;;;;;13.86;76.83;101380.25;10402109;28;20041;-75
2022/10/19 06:18:28;;;;;;;18.40;6.10;;;;;;;13.96;76.37;101379.22;10409373;28;20053;-78
2022/10/19 06:23:31;;;;;;;13.77;5.60;;;;;;;14.02;76.50;101382.09;10403334;28;20051;-77
2022/10/19 06:28:33;;;;;;;13.07;6.50;;;;;;;14.07;76.30;101379.69;10406112;28;20095;-77
2022/10/19 06:33:34;;;;;;;11.52;5.60;;;;;;;14.14;76.06;101393.38;10404217;28;20110;-75
2022/10/19 06:38:35;;;;;;;12.80;4.90;;;;;;;14.17;76.01;101393.00;10412773;28;20034;-76
2022/10/19 06:43:37;;;;;;;10.45;4.85;;;;;;;14.19;75.75;101403.66;10407287;28;20033;-77
2022/10/19 06:48:38;;;;;;;15.98;4.80;;;;;;;14.17;75.77;101400.28;10411469;28;20068;-76
2022/10/19 06:53:40;;;;;;;8.73;4.93;;;;;;;14.16;75.71;101402.16;10406873;28;20384;-75
2022/10/19 06:58:42;;;;;;;11.77;4.50;;;;;;;14.11;75.49;101415.34;10412047;28;20119;-74
2022/10/19 07:03:43;;;;;;;10.93;4.60;;;;;;;14.08;75.30;101413.00;10413326;28;20045;-79
2022/10/19 07:08:44;;;;;;;9.10;4.22;;;;;;;14.15;75.19;101418.53;10407076;28;20106;-79
2022/10/19 07:13:46;;;;;;;10.00;4.68;;;;;;;14.09;75.12;101414.66;10419148;28;20045;-77
2022/10/19 07:18:50;;;;;;;10.00;3.58;;;;;;;14.06;74.70;101410.47;10421392;28;20076;-77
2022/10/19 07:23:52;;;;;;;11.00;4.18;;;;;;;14.04;74.62;101409.78;10417101;28;20136;-76
2022/10/19 07:28:56;;;;;;;6.32;3.67;;;;;;;13.93;74.91;101412.00;10412859;28;20045;-68
2022/10/19 07:34:00;;;;;;;7.82;4.15;;;;;;;13.88;75.19;101404.41;10397469;28;20054;-67
2022/10/19 07:39:05;;;;;;;9.82;4.35;;;;;;;14.01;74.73;101415.53;10412293;28;20136;-67
2022/10/19 07:44:06;;;;;;;13.20;4.03;;;;;;;13.94;74.67;101425.38;10432634;28;20065;-67
2022/10/19 07:49:17;;;;;;;9.07;3.90;;;;;;;13.83;74.61;101431.13;10413656;28;20132;-67
2022/10/19 07:54:19;;;;;;;9.20;4.00;;;;;;;13.95;74.60;101431.59;10404700;28;20113;-66
2022/10/19 07:59:21;;;;;;;9.27;4.35;;;;;;;14.02;74.39;101436.16;10410817;28;20045;-67
2022/10/19 08:04:22;;;;;;;8.77;4.80;;;;;;;14.03;74.50;101431.59;10409999;28;20044;-67
2022/10/19 08:09:44;;;;;;;11.52;5.10;;;;;;;13.91;74.54;101431.09;10411051;28;20055;-67
2022/10/19 08:14:54;;;;;;;11.27;5.70;;;;;;;13.94;74.13;101438.00;10412372;28;20124;-67
2022/10/19 08:19:55;;;;;;;9.85;4.95;;;;;;;13.91;74.81;101438.38;10404548;28;20057;-68
2022/10/19 08:24:56;;;;;;;9.10;5.15;;;;;;;14.03;74.65;101435.13;10406112;28;20516;-67
2022/10/19 08:29:58;;;;;;;11.15;6.03;;;;;;;14.09;74.63;101436.31;10406263;28;20073;-68
2022/10/19 08:34:59;;;;;;;12.55;5.85;;;;;;;14.26;74.01;101432.53;10397675;28;20070;-68
2022/10/19 08:40:01;;;;;;;11.10;5.72;;;;;;;14.19;74.38;101423.44;10408962;28;20107;-68
2022/10/19 08:45:20;;;;;;;13.15;6.10;;;;;;;14.32;74.21;101419.34;10410028;28;20069;-69
2022/10/19 08:50:32;;;;;;;9.20;6.03;;;;;;;14.47;74.14;101412.16;10410433;28;20052;-69
2022/10/19 08:55:57;;;;;;;11.23;5.55;;;;;;;14.58;74.11;101405.56;10408138;28;20072;-69
2022/10/19 09:01:15;;;;;;;8.52;5.18;;;;;;;14.66;74.04;101403.66;10407140;28;20053;-69
2022/10/19 09:06:33;;;;;;;11.90;5.53;;;;;;;14.74;73.85;101407.34;10411187;28;20924;-68
2022/10/19 09:11:43;;;;;;;11.60;5.93;;;;;;;14.87;73.52;101402.22;10403342;28;20096;-69
2022/10/19 09:16:45;;;;;;;9.40;4.88;;;;;;;14.98;73.47;101400.94;10392710;28;20052;-68
2022/10/19 09:21:55;;;;;;;12.20;5.75;;;;;;;15.09;73.25;101400.53;10411195;28;20050;-68
2022/10/19 09:27:00;;;;;;;15.18;5.20;;;;;;;15.11;73.27;101398.50;10400189;28;20068;-68
2022/10/19 09:32:04;;;;;;;10.63;4.97;;;;;;;15.19;73.10;101403.03;10414139;28;20923;-67
2022/10/19 09:37:06;;;;;;;10.93;6.35;;;;;;;15.30;73.53;101399.03;10408729;28;20061;-67
2022/10/19 09:42:31;;;;;;;11.98;5.60;;;;;;;15.40;72.99;101389.66;10408030;28;20469;-67
2022/10/19 09:47:36;;;;;;;14.50;5.57;;;;;;;15.38;73.04;101389.00;10396442;28;20478;-67
2022/10/19 09:52:40;;;;;;;8.13;4.72;;;;;;;15.50;72.75;101389.41;10414898;28;20041;-69
2022/10/19 09:57:56;;;;;;;12.60;4.97;;;;;;;15.64;72.38;101399.44;10409435;28;20103;-69
2022/10/19 10:02:57;;;;;;;6.13;3.90;;;;;;;15.81;72.58;101399.28;10399834;28;20041;-70
2022/10/19 10:08:00;;;;;;;9.52;5.30;;;;;;;15.95;72.04;101384.06;10400687;28;20037;-70
2022/10/19 10:13:01;;;;;;;9.88;3.47;;;;;;;16.07;71.84;101390.69;10409251;28;20084;-70
2022/10/19 10:18:03;;;;;;;9.27;4.13;;;;;;;16.22;71.98;101388.00;10405577;28;20069;-71
2022/10/19 10:23:05;;;;;;;8.15;3.90;;;;;;;16.34;71.86;101381.06;10400954;28;20045;-70
2022/10/19 10:28:21;;;;;;;7.93;4.78;;;;;;;16.52;71.63;101377.13;10409373;28;20056;-70
2022/10/19 10:33:25;;;;;;;7.47;3.85;;;;;;;16.50;71.56;101382.72;10407567;28;20046;-69
2022/10/19 10:38:50;;;;;;;7.88;3.92;;;;;;;16.82;71.16;101372.47;10416824;28;20060;-70
2022/10/19 10:43:58;;;;;;;8.18;3.50;;;;;;;16.97;70.36;101362.41;10418419;28;20089;-71
2022/10/19 10:49:14;;;;;;;7.47;3.15;;;;;;;17.06;70.16;101357.69;10418236;28;20172;-69
2022/10/19 10:54:30;;;;;;;6.65;3.63;;;;;;;17.30;69.74;101353.75;10401690;28;20506;-71
2022/10/19 10:59:55;;;;;;;6.97;3.50;;;;;;;17.50;69.32;101353.06;10401341;28;20036;-70
2022/10/19 11:05:02;;;;;;;8.27;3.40;;;;;;;17.77;68.92;101341.34;10409379;28;20049;-71
2022/10/19 11:10:15;;;;;;;7.30;2.67;;;;;;;18.09;67.96;101338.19;10420942;28;20128;-70
2022/10/19 11:15:29;;;;;;;8.57;2.90;;;;;;;18.28;67.44;101328.47;10409047;28;20045;-71
2022/10/19 11:20:43;;;;;;;9.95;2.80;;;;;;;18.43;67.17;101329.97;10403352;28;20073;-70
2022/10/19 11:26:03;;;;;;;8.95;3.45;;;;;;;18.63;66.77;101324.59;10412516;28;20055;-72
2022/10/19 11:31:27;;;;;;;7.40;2.58;;;;;;;18.77;66.38;101305.56;10408542;28;20450;-71
2022/10/19 11:37:03;;;;;;;6.20;2.65;;;;;;;18.90;66.25;101302.91;10415068;28;20041;-72
2022/10/19 11:42:36;;;;;;;10.60;3.70;;;;;;;18.91;66.02;101287.38;10405834;28;20042;-72
2022/10/19 11:47:52;;;;;;;6.05;3.30;;;;;;;18.89;65.86;101282.13;10397529;28;20037;-71
2022/10/19 11:53:02;;;;;;;9.97;3.23;;;;;;;18.75;66.13;101275.81;10403227;28;20095;-73
2022/10/19 11:58:14;;;;;;;7.85;2.63;;;;;;;18.87;65.36;101267.06;10419782;28;20041;-72
2022/10/19 12:03:50;;;;;;;7.00;3.15;;;;;;;19.00;65.52;101267.06;10413577;28;20065;-71
2022/10/19 12:09:22;;;;;;;7.00;2.80;;;;;;;19.19;65.26;101246.28;10399589;28;20156;-72
2022/10/19 12:14:29;;;;;;;4.85;2.63;;;;;;;19.35;64.76;101251.34;10410657;28;20520;-71
2022/10/19 12:19:53;;;;;;;5.55;2.10;;;;;;;19.59;64.39;101238.91;10411126;28;20507;-70
2022/10/19 12:24:59;;;;;;;6.50;2.25;;;;;;;19.84;63.92;101232.75;10408196;28;20114;-68
2022/10/19 12:30:12;;;;;;;5.65;2.40;;;;;;;20.04;63.39;101226.38;10415161;28;20061;-72
2022/10/19 12:35:41;;;;;;;8.98;1.90;;;;;;;20.18;63.15;101227.97;10407244;28;20764;-71
2022/10/19 12:41:02;;;;;;;9.52;2.83;;;;;;;20.27;63.00;101218.47;10399319;28;20096;-70
2022/10/19 12:46:15;;;;;;;6.82;2.38;;;;;;;20.25;62.77;101206.13;10411407;28;20041;-71
2022/10/19 12:51:17;;;;;;;6.57;2.33;;;;;;;20.28;62.68;101201.06;10408554;28;20072;-70
2022/10/19 12:56:24;;;;;;;4.63;2.65;;;;;;;20.36;62.37;101195.31;10409794;28;20136;-71
2022/10/19 13:01:28;;;;;;;5.68;3.13;;;;;;;20.40;62.08;101196.56;10402751;28;20041;-70
2022/10/19 13:06:33;;;;;;;3.92;2.45;;;;;;;20.39;61.91;101183.94;10404630;28;20061;-71
2022/10/19 13:11:37;;;;;;;6.28;2.88;;;;;;;20.40;62.34;101190.28;10417722;28;20037;-72
2022/10/19 13:16:54;;;;;;;6.10;3.45;;;;;;;20.43;61.60;101180.78;10411565;28;20045;-70
2022/10/19 13:22:19;;;;;;;8.05;3.60;;;;;;;20.47;61.37;101169.19;10407085;28;20064;-71
2022/10/19 13:27:25;;;;;;;6.68;3.08;;;;;;;20.40;62.03;101163.78;10408224;28;20459;-71
2022/10/19 13:32:43;;;;;;;11.40;4.40;;;;;;;20.51;61.64;101145.84;10391369;28;20129;-70
2022/10/19 13:37:45;;;;;;;7.68;3.22;;;;;;;20.55;61.38;101143.50;10406554;28;20287;-71
2022/10/19 13:42:57;;;;;;;6.20;3.10;;;;;;;20.56;61.11;101145.19;10401222;28;20466;-71
2022/10/19 13:48:12;;;;;;;3.13;2.60;;;;;;;20.47;61.26;101132.84;10411032;28;20536;-72
2022/10/19 13:53:26;;;;;;;6.07;3.15;;;;;;;20.44;61.17;101134.16;10405847;28;20763;-72
2022/10/19 13:58:49;;;;;;;4.30;2.60;;;;;;;20.39;61.54;101126.59;10383591;28;20034;-71
2022/10/19 14:04:12;;;;;;;5.72;2.97;;;;;;;20.53;61.18;101127.31;10407502;28;20071;-72
2022/10/19 14:09:23;;;;;;;6.47;2.60;;;;;;;20.41;60.90;101124.47;10399852;28;20068;-70
2022/10/19 14:14:27;;;;;;;4.63;2.65;;;;;;;20.38;60.93;101119.47;10403270;28;20068;-72
2022/10/19 14:19:31;;;;;;;4.75;2.33;;;;;;;20.31;60.61;101124.16;10401098;28;20083;-72
2022/10/19 14:24:34;;;;;;;4.18;2.50;;;;;;;20.39;60.84;101117.56;10410513;28;20149;-71
2022/10/19 14:29:46;;;;;;;10.18;3.53;;;;;;;20.28;60.79;101112.81;10409291;28;20372;-71
2022/10/19 14:34:48;;;;;;;4.10;2.13;;;;;;;20.26;60.91;101104.00;10387723;28;20430;-70
2022/10/19 14:40:03;;;;;;;3.88;2.05;;;;;;;20.19;60.42;101093.97;10399549;28;20049;-69
2022/10/19 14:45:11;;;;;;;3.40;2.03;;;;;;;20.13;60.75;101091.31;10394847;28;20077;-69
2022/10/19 14:50:14;;;;;;;3.80;2.40;;;;;;;20.09;60.81;101084.63;10398374;28;20763;-69
2022/10/19 14:55:18;;;;;;;5.50;2.50;;;;;;;20.05;60.78;101078.78;10399672;28;20190;-71
2022/10/19 15:00:21;;;;;;;3.47;2.13;;;;;;;20.03;60.89;101082.78;10405100;28;20072;-71
2022/10/19 15:05:27;;;;;;;7.00;2.42;;;;;;;19.98;61.06;101086.16;10403851;28;20050;-72
2022/10/19 15:10:42;;;;;;;4.97;2.20;;;;;;;19.97;60.70;101093.50;10410408;28;20452;-70
2022/10/19 15:15:50;;;;;;;8.65;2.97;;;;;;;19.86;60.83;101091.47;10408894;28;20100;-71
2022/10/19 15:21:14;;;;;;;3.47;2.30;;;;;;;19.72;61.21;101092.63;10408445;28;20085;-71
2022/10/19 15:26:22;;;;;;;7.15;3.47;;;;;;;19.53;61.90;101087.03;10411590;28;22045;-70
2022/10/19 15:31:27;;;;;;;5.43;2.80;;;;;;;19.25;62.29;101087.34;10417991;28;20041;-70
2022/10/19 15:36:30;;;;;;;7.03;3.40;;;;;;;18.99;62.51;101071.91;10411028;28;20075;-71
2022/10/19 15:41:37;;;;;;;4.93;3.60;;;;;;;18.83;62.73;101074.03;10413596;28;20069;-73
2022/10/19 15:46:47;;;;;;;5.38;3.30;;;;;;;18.63;62.75;101076.78;10395589;28;20561;-69
2022/10/19 15:51:49;;;;;;;5.00;3.40;;;;;;;18.43;63.17;101063.19;10407041;28;20123;-70
2022/10/19 15:56:51;;;;;;;6.35;3.72;;;;;;;18.32;63.52;101062.97;10409352;28;20080;-70
2022/10/19 16:01:53;;;;;;;8.02;4.22;;;;;;;18.22;63.55;101066.94;10403634;28;20045;-70
2022/10/19 16:06:56;;;;;;;7.40;3.78;;;;;;;18.15;63.72;101062.56;10403243;28;20064;-71
2022/10/19 16:11:58;;;;;;;6.03;4.05;;;;;;;17.97;64.00;101064.00;10401507;28;20098;-70
2022/10/19 16:16:59;;;;;;;7.25;3.90;;;;;;;17.92;64.00;101058.34;10401953;28;20041;-70
2022/10/19 16:22:01;;;;;;;9.18;5.32;;;;;;;17.83;64.05;101059.53;10411841;28;20045;-71
2022/10/19 16:27:03;;;;;;;9.32;4.78;;;;;;;17.74;64.54;101052.63;10404195;28;20069;-71
2022/10/19 16:32:04;;;;;;;10.57;6.05;;;;;;;17.68;64.67;101053.47;10408782;28;20065;-72
2022/10/19 16:37:06;;;;;;;9.32;6.18;;;;;;;17.59;64.56;101055.50;10416365;28;20128;-66
2022/10/19 16:42:08;;;;;;;10.35;6.75;;;;;;;17.50;64.90;101054.88;10414362;28;20045;-70
2022/10/19 16:47:09;;;;;;;12.57;6.63;;;;;;;17.43;65.24;101049.41;10409771;28;20048;-71
2022/10/19 16:52:14;;;;;;;11.18;6.93;;;;;;;17.39;65.44;101052.75;10400508;28;20061;-66
2022/10/19 16:57:15;;;;;;;13.85;6.18;;;;;;;17.31;65.45;101048.31;10405794;28;20076;-67
2022/10/19 17:02:20;;;;;;;11.60;7.18;;;;;;;17.18;65.48;101049.13;10409683;28;20080;-66
2022/10/19 17:07:22;;;;;;;16.48;8.55;;;;;;;17.00;65.83;101055.09;10409960;28;20718;-65
2022/10/19 17:12:24;;;;;;;14.93;8.15;;;;;;;16.83;66.04;101048.31;10401729;28;20144;-65
2022/10/19 17:17:25;;;;;;;9.65;6.15;;;;;;;16.66;66.29;101039.59;10407518;28;20055;-66
2022/10/19 17:22:26;;;;;;;12.07;6.57;;;;;;;16.43;66.73;101040.72;10408390;28;20045;-67
2022/10/19 17:27:28;;;;;;;12.65;6.95;;;;;;;16.27;67.03;101049.13;10410320;28;20049;-66
2022/10/19 17:32:29;;;;;;;12.30;6.22;;;;;;;16.12;67.36;101051.09;10416041;28;20053;-66
2022/10/19 17:37:30;;;;;;;10.55;6.70;;;;;;;16.01;67.53;101056.00;10417790;28;20529;-66
2022/10/19 17:42:35;;;;;;;10.48;6.80;;;;;;;15.91;67.69;101050.06;10410325;28;20053;-67
2022/10/19 17:47:36;;;;;;;10.25;6.90;;;;;;;15.79;67.91;101052.44;10402970;28;20176;-67
2022/10/19 17:52:38;;;;;;;9.90;6.47;;;;;;;15.66;68.22;101049.59;10408858;28;20462;-66
2022/10/19 17:57:40;;;;;;;11.88;7.30;;;;;;;15.56;68.33;101040.91;10402089;28;20445;-66
2022/10/19 18:02:44;;;;;;;14.60;6.72;;;;;;;15.49;68.03;101035.44;10414767;28;20107;-67
2022/10/19 18:07:48;;;;;;;12.18;7.35;;;;;;;15.39;68.77;101045.75;10413704;28;20099;-65
2022/10/19 18:12:49;;;;;;;22.15;12.57;;;;;;;15.22;69.16;101039.69;10413367;28;20587;-66
2022/10/19 18:17:50;;;;;;;14.98;9.43;;;;;;;15.08;69.48;101041.38;10401023;28;20076;-66
2022/10/19 18:22:52;;;;;;;12.27;8.20;;;;;;;14.96;69.56;101043.72;10403043;28;20480;-66
2022/10/19 18:27:53;;;;;;;13.68;8.50;;;;;;;14.85;69.70;101034.22;10409527;28;20049;-66
2022/10/19 18:32:55;;;;;;;14.07;7.82;;;;;;;14.81;69.84;101041.06;10406307;28;20132;-66
2022/10/19 18:37:56;;;;;;;19.25;8.60;;;;;;;14.76;69.78;101020.97;10396847;28;20135;-67
2022/10/19 18:42:57;;;;;;;15.55;9.25;;;;;;;14.70;69.83;101029.84;10404102;28;20129;-66
2022/10/19 18:47:59;;;;;;;18.05;9.88;;;;;;;14.57;70.04;101011.53;10405338;28;20124;-66
2022/10/19 18:53:00;;;;;;;15.82;9.30;;;;;;;14.51;70.26;100996.84;10403311;28;20077;-65
2022/10/19 18:58:02;;;;;;;10.48;7.13;;;;;;;14.49;70.46;101004.31;10411048;28;20045;-65
2022/10/19 19:03:03;;;;;;;16.25;8.38;;;;;;;14.46;70.34;100997.41;10417594;28;20053;-66
2022/10/19 19:08:04;;;;;;;10.70;6.88;;;;;;;14.41;70.42;100986.31;10413111;28;20132;-65
2022/10/19 19:13:06;;;;;;;12.70;7.05;;;;;;;14.39;70.63;100982.94;10417082;28;20080;-67
2022/10/19 19:18:08;;;;;;;12.88;7.63;;;;;;;14.39;70.59;100977.53;10411317;28;20115;-67
2022/10/19 19:23:09;;;;;;;11.77;6.85;;;;;;;14.40;70.84;100971.13;10413501;28;20128;-67
2022/10/19 19:28:11;;;;;;;12.13;7.47;;;;;;;14.38;71.03;100967.75;10409450;28;20472;-66
2022/10/19 19:33:13;;;;;;;13.52;7.13;;;;;;;14.35;71.35;100973.53;10413939;28;20132;-67
2022/10/19 19:38:15;;;;;;;13.43;8.25;;;;;;;14.38;71.17;100975.03;10407389;28;20045;-66
2022/10/19 19:43:18;;;;;;;11.35;7.70;;;;;;;14.41;71.09;100978.19;10405658;28;20056;-66
2022/10/19 19:48:20;;;;;;;13.95;8.20;;;;;;;14.43;71.14;100976.13;10414462;28;20100;-67
2022/10/19 19:53:21;;;;;;;14.35;7.95;;;;;;;14.42;71.14;100971.78;10414234;28;20133;-66
2022/10/19 19:58:23;;;;;;;18.42;8.98;;;;;;;14.44;71.06;100979.72;10410085;28;21021;-66
2022/10/19 20:03:24;;;;;;;12.00;7.80;;;;;;;14.41;71.12;100980.91;10416723;28;20157;-66
2022/10/19 20:08:26;;;;;;;12.68;6.45;;;;;;;14.41;71.22;100980.91;10407462;28;20069;-66
2022/10/19 20:13:27;;;;;;;11.98;7.18;;;;;;;14.35;71.24;100980.81;10410965;28;20042;-65
2022/10/19 20:18:29;;;;;;;9.90;6.88;;;;;;;14.32;71.48;100983.91;10418638;28;20071;-65
2022/10/19 20:23:31;;;;;;;12.30;6.90;;;;;;;14.31;71.62;100982.22;10411549;28;20065;-67
2022/10/19 20:28:33;;;;;;;13.35;6.95;;;;;;;14.27;71.74;100985.25;10410344;28;20129;-66
2022/10/19 20:33:36;;;;;;;9.57;5.68;;;;;;;14.26;71.66;100980.91;10408163;28;20076;-66
2022/10/19 20:38:39;;;;;;;11.40;6.63;;;;;;;14.22;71.62;100971.47;10413173;28;20037;-66
2022/10/19 20:43:41;;;;;;;13.05;6.75;;;;;;;14.18;71.84;100972.00;10411890;28;20041;-66
2022/10/19 20:48:43;;;;;;;11.95;6.28;;;;;;;14.16;71.94;100969.50;10410853;28;20072;-66
2022/10/19 20:53:46;;;;;;;10.35;7.00;;;;;;;14.15;71.85;100972.41;10408715;28;20141;-66
2022/10/19 20:59:12;;;;;;;13.13;7.28;;;;;;;14.03;72.28;100963.88;10404434;28;20049;-66
2022/10/19 21:04:14;;;;;;;10.93;6.43;;;;;;;13.97;72.08;100965.47;10408851;28;20503;-66
2022/10/19 21:09:19;;;;;;;9.85;6.45;;;;;;;13.96;72.21;100971.91;10409612;28;20076;-66
2022/10/19 21:14:26;;;;;;;11.30;6.15;;;;;;;13.91;72.03;100966.19;10406651;28;20037;-65
2022/10/19 21:19:29;;;;;;;10.23;5.45;;;;;;;13.79;72.45;100960.38;10408544;28;20061;-67
2022/10/19 21:24:34;;;;;;;10.60;5.95;;;;;;;13.72;72.32;100951.31;10410143;28;20123;-66
2022/10/19 21:29:35;;;;;;;11.90;5.75;;;;;;;13.66;72.20;100950.22;10413943;28;20099;-67
2022/10/19 21:34:37;;;;;;;12.30;5.68;;;;;;;13.56;72.44;100956.84;10408301;28;20132;-66
2022/10/19 21:39:38;;;;;;;13.35;5.88;;;;;;;13.52;72.08;100950.97;10400357;28;20168;-68
2022/10/19 21:44:40;;;;;;;10.45;5.28;;;;;;;13.52;72.22;100950.13;10402872;28;20458;-68
2022/10/19 21:49:41;;;;;;;10.43;4.50;;;;;;;13.48;71.99;100961.28;10408926;28;20501;-67
2022/10/19 21:54:42;;;;;;;8.00;4.63;;;;;;;13.47;71.96;100953.41;10402787;28;20527;-67
2022/10/19 21:59:44;;;;;;;8.50;5.10;;;;;;;13.41;71.77;100946.00;10397617;28;20137;-66
2022/10/19 22:04:45;;;;;;;9.88;4.80;;;;;;;13.38;71.78;100949.06;10412275;28;20070;-66
2022/10/19 22:09:47;;;;;;;12.00;4.90;;;;;;;13.31;71.74;100940.84;10408171;28;20099;-67
2022/10/19 22:14:48;;;;;;;11.85;4.78;;;;;;;13.30;71.77;100939.16;10406404;28;20132;-67
2022/10/19 22:19:49;;;;;;;11.80;5.13;;;;;;;13.22;71.82;100933.78;10399706;28;20521;-65
2022/10/19 22:24:52;;;;;;;10.68;4.82;;;;;;;13.16;72.07;100921.84;10402503;28;20054;-66
2022/10/19 22:29:53;;;;;;;13.23;5.53;;;;;;;13.12;71.76;100925.91;10410649;28;20045;-67
2022/10/19 22:34:54;;;;;;;10.82;4.70;;;;;;;13.08;71.49;100921.88;10407980;28;20075;-65
2022/10/19 22:39:56;;;;;;;9.32;4.70;;;;;;;13.02;71.56;100917.22;10413776;28;20599;-65
2022/10/19 22:44:57;;;;;;;9.85;4.68;;;;;;;13.03;71.51;100918.88;10410951;28;20080;-66
2022/10/19 22:49:58;;;;;;;11.38;4.80;;;;;;;13.02;71.63;100917.22;10412914;28;20073;-66
2022/10/19 22:55:00;;;;;;;9.57;4.22;;;;;;;13.01;71.44;100915.50;10411040;28;20084;-65
2022/10/19 23:00:02;;;;;;;6.43;4.60;;;;;;;13.06;71.07;100908.56;10413115;28;20591;-65
2022/10/19 23:05:03;;;;;;;13.30;4.13;;;;;;;13.05;71.30;100906.91;10400063;28;20152;-65
2022/10/19 23:10:05;;;;;;;9.77;3.78;;;;;;;13.05;71.32;100906.91;10413673;28;20045;-67
2022/10/19 23:15:07;;;;;;;11.30;4.15;;;;;;;13.00;71.13;100903.06;10406543;28;20133;-67